Historyczne dane pomiarowe

Dodano dane terminowe – wersja testowa.

Dane z okresu 1951-2019

Wersja bazy: 1.34 [2019-03-16, lista zmian], aktualizacja planowana na 2019-04-15

Dane meteo z obszaru Polski uzyskane na podstawie danych udostępnionych przez Instytut Meteorologii i Gospodarki Wodnej – Państwowy Instytut Badawczy.

 

Wybierz Datę:    

       

TemperaturaWilgotnośćZachmurzenieWiatrCiśnienieWidzialnośćZjawiska
 Data    tng td wb rh cc ccl cl cm ch dir g1 g2 mslp ppp      
1994-07-20 00:00:00 10.4--- 8.7 9.589wxwxwx0wx--1018.4 977.2 0.0---wx
1994-07-20 01:00:00 10.2--- 8.7 9.490wxwxwx0wx--1018.5 977.2----wx
1994-07-20 02:00:00 9.5--- 8.6 9.094wxwxwx0wx--1018.4 977.0----wx
1994-07-20 03:00:00 9.5--- 8.6 9.094wxwxwx0wx--1018.7 977.3----wx
1994-07-20 04:00:00 8.4--- 7.8 8.196wxwxwxwx0wx--1018.9 977.4----wx
1994-07-20 05:00:00 11.5--- 9.7 10.589wxwxwxwx3wx--1018.3 977.2----wx
1994-07-20 06:00:00 15.6--- 9.9 12.469wxwxwxwx0wx--1017.7 977.2 0.0---wx
1994-07-20 07:00:00 18.2--- 8.0 12.651wxwxwxwx2wx--1017.5 977.4----wx
1994-07-20 08:00:00 19.7--- 8.0 13.247wxwxwxwx5wx--1017.3 977.4----wx
1994-07-20 09:00:00 20.2--- 7.9 13.445wxwxwxwxwx5wx--1017.4 977.6----wx
1994-07-20 10:00:00 21.1--- 9.4 14.447wxwxwxwxwx2wx--1017.3 977.6----wx
1994-07-20 11:00:00 22.0--- 8.6 14.442wxwxwxwx2wx--1017.0 977.4----wx
1994-07-20 12:00:00 22.4--- 7.7 14.239wxwxwxwx2wx--1016.7 977.2 0.0---wx
1994-07-20 13:00:00 23.4--- 7.3 14.435wxwxwxwx1wx--1016.4 977.0----wx
1994-07-20 14:00:00 23.6--- 8.5 15.038wxwxwxwx1wx--1016.2 976.8----wx
1994-07-20 15:00:00 23.6--- 8.5 15.038wxwxwxwx2wx--1015.8 976.5----wx
1994-07-20 16:00:00 23.6--- 9.4 15.441wxwxwxwx1wx--1015.7 976.4----wx
1994-07-20 17:00:00 22.6--- 9.6 15.144wxwxwxwxwx1wx--1016.1 976.6----wx
1994-07-20 18:00:00 21.2--- 9.5 14.547wxwxwx0wx--1016.6 976.9 0.0---wx
1994-07-20 19:00:00 18.8--- 9.6 13.655wxwxwx0wx--1017.3 977.3----wx
1994-07-20 20:00:00 15.1--- 9.9 12.271wxwx0wx--1018.5 977.9----wx
1994-07-20 21:00:00 13.4--- 10.2 11.681wxwx0wx--1019.2 978.4----wx
1994-07-20 22:00:00 12.2--- 10.0 11.087wxwx0wx--1019.7 978.7----wx
1994-07-20 23:00:00 10.6--- 9.5 10.093wxwx0wx--1020.1 978.8----wx

 

Źródłem pochodzenia danych jest Instytut Meteorologii i Gospodarki Wodnej – Państwowy Instytut Badawczy. Dane Instytutu Meteorologii i Gospodarki Wodnej – Państwowego Instytutu Badawczego zostały przetworzone.

Dane źródłowe można odnaleźć na stronie https://dane.imgw.pl